createdAt,value
2019-05-02T00:01:36.079Z,75.33
2019-05-02T00:04:05.448Z,77.70
2019-05-02T00:06:38.108Z,71.87
2019-05-02T00:09:09.132Z,76.20
2019-05-02T00:11:39.594Z,76.10
2019-05-02T00:14:09.573Z,84.57
2019-05-02T00:16:39.410Z,86.93
2019-05-02T00:19:09.127Z,82.77
2019-05-02T00:21:42.865Z,77.63
2019-05-02T00:24:13.881Z,77.17
2019-05-02T00:26:43.290Z,78.27
2019-05-02T00:29:12.458Z,79.40
2019-05-02T00:31:46.268Z,83.87
2019-05-02T00:34:12.702Z,85.27
2019-05-02T00:36:41.946Z,85.57
2019-05-02T00:39:13.832Z,85.10
2019-05-02T00:41:42.309Z,80.80
2019-05-02T00:44:12.344Z,82.03
2019-05-02T00:46:41.669Z,83.40
2019-05-02T00:49:11.024Z,84.30
2019-05-02T00:51:40.377Z,84.13
2019-05-02T00:54:09.671Z,79.70
2019-05-02T00:56:40.168Z,85.10
2019-05-02T00:59:09.925Z,86.33
2019-05-02T01:02:00.014Z,92.60
2019-05-02T01:04:30.663Z,88.53
2019-05-02T01:06:59.924Z,91.53
2019-05-02T01:09:29.263Z,82.93
2019-05-02T01:11:58.515Z,86.37
2019-05-02T01:14:31.876Z,81.53
2019-05-02T01:16:58.738Z,84.23
2019-05-02T01:19:28.028Z,83.07
2019-05-02T01:21:57.278Z,83.33
2019-05-02T01:24:26.547Z,83.67
2019-05-02T01:27:06.477Z,86.93
2019-05-02T01:29:53.841Z,83.83
2019-05-02T01:32:40.060Z,82.67
2019-05-02T01:35:31.639Z,82.43
2019-05-02T01:38:18.335Z,91.50
2019-05-02T01:40:53.124Z,86.10
2019-05-02T01:43:25.336Z,87.53
2019-05-02T01:45:54.950Z,89.23
2019-05-02T01:48:24.536Z,89.03
2019-05-02T01:50:53.840Z,89.97
2019-05-02T01:53:23.143Z,87.20
2019-05-02T01:55:57.736Z,88.67
2019-05-02T01:58:23.476Z,89.30
2019-05-02T02:00:52.847Z,87.47
2019-05-02T02:03:22.247Z,93.10
2019-05-02T02:05:51.499Z,93.87
2019-05-02T02:08:20.859Z,92.80
2019-05-02T02:10:55.654Z,86.93
2019-05-02T02:13:21.199Z,94.37
2019-05-02T02:15:50.539Z,93.03
2019-05-02T02:18:22.079Z,94.60
2019-05-02T02:20:58.535Z,98.83
2019-05-02T02:23:44.985Z,90.97
2019-05-02T02:26:14.339Z,99.00
2019-05-02T02:28:44.242Z,98.70
2019-05-02T02:31:13.510Z,95.70
2019-05-02T02:33:47.566Z,99.60
2019-05-02T02:36:13.738Z,95.63
2019-05-02T02:38:43.048Z,99.77
2019-05-02T02:41:13.353Z,98.27
2019-05-02T02:43:45.275Z,104.60
2019-05-02T02:46:23.229Z,102.23
2019-05-02T02:48:52.405Z,97.93
2019-05-02T02:51:24.514Z,101.80
2019-05-02T02:54:03.137Z,99.63
2019-05-02T02:56:23.677Z,100.00
2019-05-02T02:58:52.995Z,100.40
2019-05-02T03:01:28.916Z,97.47
2019-05-02T03:03:53.271Z,101.03
2019-05-02T03:06:22.583Z,109.60
2019-05-02T03:08:51.841Z,94.37
2019-05-02T03:11:25.185Z,98.63
2019-05-02T03:14:12.385Z,89.50
2019-05-02T03:16:47.185Z,92.03
2019-05-02T03:19:14.761Z,89.63
2019-05-02T03:21:54.366Z,90.83
2019-05-02T03:24:25.712Z,97.83
2019-05-02T03:26:57.892Z,93.33
2019-05-02T03:29:39.710Z,90.73
2019-05-02T03:32:14.275Z,100.10
2019-05-02T03:34:45.456Z,93.83
2019-05-02T03:37:03.302Z,88.93
2019-05-02T03:39:30.620Z,96.63
2019-05-02T03:42:02.958Z,98.13
2019-05-02T03:44:32.112Z,94.33
2019-05-02T03:47:04.490Z,93.40
2019-05-02T03:49:32.392Z,96.27
2019-05-02T03:52:02.787Z,98.30
2019-05-02T03:54:32.643Z,106.97
2019-05-02T03:57:01.851Z,99.03
2019-05-02T03:59:38.911Z,98.93
2019-05-02T04:02:02.179Z,108.50
2019-05-02T04:04:31.500Z,121.67
2019-05-02T04:07:01.477Z,128.47
2019-05-02T04:09:41.820Z,122.53
2019-05-02T04:12:11.598Z,127.67
2019-05-02T04:14:39.388Z,136.30
2019-05-02T04:17:10.632Z,140.50
2019-05-02T04:19:40.659Z,143.87
2019-05-02T04:22:12.063Z,148.10
2019-05-02T04:24:47.910Z,150.17
2019-05-02T04:27:13.072Z,161.07
2019-05-02T04:29:42.954Z,154.27
2019-05-02T04:32:14.538Z,157.73
2019-05-02T04:34:48.918Z,175.83
2019-05-02T04:37:14.125Z,171.60
2019-05-02T04:39:43.427Z,155.63
2019-05-02T04:42:18.754Z,168.67
2019-05-02T04:45:00.010Z,173.03
2019-05-02T04:47:20.721Z,179.40
2019-05-02T04:49:51.573Z,165.07
2019-05-02T04:52:18.234Z,170.93
2019-05-02T04:54:48.772Z,156.83
2019-05-02T04:57:18.814Z,164.07
2019-05-02T04:59:50.579Z,160.33
2019-05-02T05:02:23.053Z,170.30
2019-05-02T05:04:50.323Z,171.43
2019-05-02T05:07:19.647Z,165.30
2019-05-02T05:09:56.919Z,163.87
2019-05-02T05:12:19.871Z,163.33
2019-05-02T05:14:49.124Z,167.27
2019-05-02T05:17:20.023Z,178.37
2019-05-02T05:19:49.511Z,184.23
2019-05-02T05:22:18.808Z,181.57
2019-05-02T05:24:53.882Z,177.03
2019-05-02T05:27:23.219Z,180.07
2019-05-02T05:29:53.590Z,183.30
2019-05-02T05:32:23.549Z,182.33
2019-05-02T05:34:52.831Z,178.00
2019-05-02T05:37:22.106Z,173.83
2019-05-02T05:39:52.689Z,164.67
2019-05-02T05:42:23.184Z,161.20
2019-05-02T05:44:53.049Z,164.07
2019-05-02T05:47:22.374Z,161.73
2019-05-02T05:49:52.262Z,158.43
2019-05-02T05:52:22.647Z,165.73
2019-05-02T05:54:51.962Z,159.17
2019-05-02T05:57:21.371Z,150.67
2019-05-02T05:59:50.642Z,153.57
2019-05-02T06:02:19.907Z,152.57
2019-05-02T06:04:50.240Z,147.30
2019-05-02T06:07:20.181Z,144.20
2019-05-02T06:09:49.780Z,142.60
2019-05-02T06:12:19.043Z,148.97
2019-05-02T06:14:48.363Z,157.27
2019-05-02T06:17:17.691Z,153.83
2019-05-02T06:19:48.305Z,150.03
2019-05-02T06:22:24.383Z,150.07
2019-05-02T06:24:50.821Z,150.90
2019-05-02T06:27:20.757Z,142.83
2019-05-02T06:29:51.205Z,138.07
2019-05-02T06:32:21.846Z,140.57
2019-05-02T06:34:51.192Z,140.53
2019-05-02T06:37:20.448Z,142.67
2019-05-02T06:39:49.790Z,137.17
2019-05-02T06:42:19.027Z,133.97
2019-05-02T06:44:48.349Z,128.47
2019-05-02T06:47:17.673Z,138.77
2019-05-02T06:49:46.935Z,136.43
2019-05-02T06:52:16.189Z,133.10
2019-05-02T06:54:45.595Z,125.57
2019-05-02T06:57:18.916Z,124.20
2019-05-02T06:59:49.937Z,120.37
2019-05-02T07:02:17.019Z,121.17
2019-05-02T07:04:46.335Z,126.53
2019-05-02T07:07:15.854Z,134.33
2019-05-02T07:09:45.223Z,125.13
2019-05-02T07:12:16.673Z,128.70
2019-05-02T07:14:46.089Z,125.70
2019-05-02T07:17:32.072Z,129.13
2019-05-02T07:20:04.097Z,133.07
2019-05-02T07:22:33.059Z,127.23
2019-05-02T07:25:07.054Z,128.40
2019-05-02T07:27:35.645Z,127.70
2019-05-02T07:30:05.695Z,134.43
2019-05-02T07:32:34.975Z,132.00
2019-05-02T07:35:04.547Z,135.13
2019-05-02T07:37:33.818Z,122.10
2019-05-02T07:40:03.063Z,134.50
2019-05-02T07:42:32.396Z,139.93
2019-05-02T07:45:04.390Z,146.37
2019-05-02T07:47:34.700Z,135.90
2019-05-02T07:50:05.392Z,125.90
2019-05-02T07:52:34.982Z,140.50
2019-05-02T07:55:06.663Z,133.47
2019-05-02T07:57:35.278Z,133.90
2019-05-02T08:00:05.428Z,127.87
2019-05-02T08:02:34.913Z,117.13
2019-05-02T08:05:04.464Z,125.93
2019-05-02T08:07:34.331Z,123.87
2019-05-02T08:10:04.143Z,111.70
2019-05-02T08:12:33.487Z,113.97
2019-05-02T08:15:07.466Z,114.27
2019-05-02T08:17:33.886Z,108.97
2019-05-02T08:20:05.064Z,117.40
2019-05-02T08:22:34.163Z,115.83
2019-05-02T08:25:10.439Z,111.57
2019-05-02T08:27:56.919Z,109.10
2019-05-02T08:30:35.276Z,106.73
2019-05-02T08:33:02.738Z,110.57
2019-05-02T08:35:32.015Z,105.63
2019-05-02T08:38:01.299Z,113.57
2019-05-02T08:40:31.144Z,112.27
2019-05-02T08:43:03.475Z,110.23
2019-05-02T08:45:33.037Z,113.93
2019-05-02T08:48:05.166Z,106.93
2019-05-02T08:50:33.532Z,114.10
2019-05-02T08:53:03.091Z,110.87
2019-05-02T08:55:32.344Z,109.87
2019-05-02T08:58:01.558Z,100.17
2019-05-02T09:00:32.042Z,99.83
2019-05-02T09:03:02.699Z,97.27
2019-05-02T09:05:36.985Z,91.33
2019-05-02T09:08:04.325Z,99.20
2019-05-02T09:10:37.073Z,94.07
2019-05-02T09:13:04.521Z,93.10
2019-05-02T09:15:35.327Z,89.43
2019-05-02T09:18:04.746Z,87.90
2019-05-02T09:20:34.021Z,82.27
2019-05-02T09:23:03.242Z,84.03
2019-05-02T09:25:32.795Z,82.20
2019-05-02T09:28:02.209Z,88.60
2019-05-02T09:30:32.703Z,82.87
2019-05-02T09:33:05.406Z,79.40
2019-05-02T09:35:33.199Z,73.13
2019-05-02T09:38:02.481Z,73.47
2019-05-02T09:40:31.962Z,80.90
2019-05-02T09:43:02.840Z,71.90
2019-05-02T09:45:37.373Z,75.37
2019-05-02T09:48:07.960Z,76.40
2019-05-02T09:50:38.180Z,64.73
2019-05-02T09:53:07.131Z,65.30
2019-05-02T09:55:36.446Z,62.10
2019-05-02T09:58:05.896Z,62.77
2019-05-02T10:00:59.054Z,55.73
2019-05-02T10:03:28.571Z,57.30
2019-05-02T10:05:57.910Z,52.50
2019-05-02T10:08:27.275Z,52.43
2019-05-02T10:10:56.622Z,48.10
2019-05-02T10:13:25.978Z,52.07
2019-05-02T10:15:55.270Z,49.20
2019-05-02T10:18:30.059Z,48.50
2019-05-02T10:20:56.203Z,45.23
2019-05-02T10:23:25.569Z,47.30
2019-05-02T10:25:54.807Z,44.37
2019-05-02T10:28:24.021Z,41.33
2019-05-02T10:30:56.642Z,39.97
2019-05-02T10:33:28.039Z,37.87
2019-05-02T10:35:55.249Z,34.93
2019-05-02T10:38:24.458Z,40.10
2019-05-02T10:41:01.154Z,37.40
2019-05-02T10:43:24.678Z,37.17
2019-05-02T10:45:59.271Z,38.73
2019-05-02T10:48:29.095Z,38.27
2019-05-02T10:51:17.602Z,29.97
2019-05-02T10:53:51.614Z,33.03
2019-05-02T10:56:17.902Z,32.07
2019-05-02T10:58:47.207Z,31.13
2019-05-02T11:01:18.221Z,37.13
2019-05-02T11:03:48.337Z,33.33
2019-05-02T11:06:17.718Z,28.70
2019-05-02T11:08:46.963Z,35.00
2019-05-02T11:11:16.371Z,34.23
2019-05-02T11:14:12.032Z,34.70
2019-05-02T11:16:58.279Z,34.00
2019-05-02T11:19:52.566Z,35.60
2019-05-02T11:22:22.760Z,32.43
2019-05-02T11:24:52.449Z,30.33
2019-05-02T11:27:25.158Z,28.40
2019-05-02T11:29:54.520Z,34.73
2019-05-02T11:32:23.946Z,33.57
2019-05-02T11:34:53.111Z,36.23
2019-05-02T11:37:22.689Z,32.23
2019-05-02T11:39:58.567Z,34.57
2019-05-02T11:42:27.216Z,30.67
2019-05-02T11:44:54.311Z,37.33
2019-05-02T11:47:26.542Z,35.53
2019-05-02T11:49:55.976Z,34.10
2019-05-02T11:52:27.485Z,34.00
2019-05-02T11:54:56.411Z,35.87
2019-05-02T11:57:28.405Z,40.43
2019-05-02T11:59:59.338Z,33.53
2019-05-02T12:02:58.087Z,37.90
2019-05-02T12:05:35.685Z,36.23
2019-05-02T12:08:07.885Z,43.50
2019-05-02T12:10:36.700Z,29.83
2019-05-02T12:13:06.596Z,26.70
2019-05-02T12:15:36.039Z,27.10
2019-05-02T12:18:05.309Z,27.27
2019-05-02T12:20:36.779Z,28.60
2019-05-02T12:23:05.671Z,26.77
2019-05-02T12:25:34.872Z,29.80
2019-05-02T12:28:04.174Z,31.40
2019-05-02T12:30:37.706Z,26.20
2019-05-02T12:33:04.505Z,32.67
2019-05-02T12:35:33.883Z,31.13
2019-05-02T12:38:03.207Z,37.73
2019-05-02T12:40:32.633Z,32.97
2019-05-02T12:43:02.431Z,32.70
2019-05-02T12:45:33.673Z,35.43
2019-05-02T12:48:03.131Z,37.00
2019-05-02T12:50:32.419Z,34.47
2019-05-02T12:53:02.930Z,32.63
2019-05-02T12:55:32.663Z,39.77
2019-05-02T12:58:03.095Z,36.03
2019-05-02T13:00:32.732Z,36.73
2019-05-02T13:03:17.386Z,39.40
2019-05-02T13:05:46.750Z,38.07
2019-05-02T13:08:15.987Z,38.17
2019-05-02T13:11:06.395Z,35.40
2019-05-02T13:13:32.816Z,35.67
2019-05-02T13:16:03.892Z,32.67
2019-05-02T13:18:37.092Z,31.43
2019-05-02T13:21:11.114Z,32.27
2019-05-02T13:23:46.559Z,33.37
2019-05-02T13:26:19.596Z,33.40
2019-05-02T13:28:47.063Z,27.10
2019-05-02T13:31:29.531Z,31.60
2019-05-02T13:34:14.871Z,27.47
2019-05-02T13:36:48.039Z,22.43
2019-05-02T13:39:35.397Z,26.60
2019-05-02T13:42:04.864Z,26.30
2019-05-02T13:44:36.972Z,23.23
2019-05-02T13:47:08.759Z,23.10
2019-05-02T13:49:50.165Z,21.50
2019-05-02T13:52:09.167Z,23.03
2019-05-02T13:54:39.003Z,21.50
2019-05-02T13:57:08.276Z,23.47
2019-05-02T13:59:37.533Z,27.67
2019-05-02T14:02:08.104Z,23.60
2019-05-02T14:04:37.363Z,26.17
2019-05-02T14:07:07.693Z,26.83
2019-05-02T14:09:52.717Z,26.00
2019-05-02T14:12:28.325Z,23.33
2019-05-02T14:14:57.630Z,22.53
2019-05-02T14:17:27.004Z,21.47
2019-05-02T14:20:07.746Z,26.10
2019-05-02T14:22:28.820Z,27.20
2019-05-02T14:24:58.128Z,31.17
2019-05-02T14:27:27.418Z,28.93
2019-05-02T14:29:56.862Z,30.97
2019-05-02T14:32:26.783Z,28.70
2019-05-02T14:35:24.000Z,35.33
2019-05-02T14:38:08.326Z,28.67
2019-05-02T14:40:42.895Z,29.30
2019-05-02T14:43:13.935Z,29.63
2019-05-02T14:45:43.912Z,25.50
2019-05-02T14:48:22.246Z,32.37
2019-05-02T14:50:52.090Z,27.83
2019-05-02T14:53:25.349Z,33.97
2019-05-02T14:55:57.530Z,29.97
2019-05-02T14:58:24.497Z,34.67
2019-05-02T15:00:55.118Z,29.47
2019-05-02T15:03:28.334Z,30.73
2019-05-02T15:05:59.094Z,31.30
2019-05-02T15:08:26.452Z,34.00
2019-05-02T15:10:56.663Z,27.97
2019-05-02T15:13:26.269Z,30.20
2019-05-02T15:15:55.592Z,29.07
2019-05-02T15:18:24.985Z,33.27
2019-05-02T15:20:54.323Z,25.03
2019-05-02T15:23:23.707Z,35.57
2019-05-02T15:25:56.050Z,29.43
2019-05-02T15:28:24.048Z,31.83
2019-05-02T15:31:24.237Z,32.07
2019-05-02T15:34:01.611Z,27.00
2019-05-02T15:36:32.381Z,29.53
2019-05-02T15:41:32.962Z,30.03
2019-05-02T15:44:02.298Z,25.10
2019-05-02T15:46:31.969Z,27.53
2019-05-02T15:49:04.537Z,27.70
2019-05-02T15:51:32.849Z,29.03
2019-05-02T15:54:08.489Z,27.07
2019-05-02T15:56:52.238Z,32.77
2019-05-02T15:59:37.582Z,32.67
2019-05-02T16:02:08.049Z,25.17
2019-05-02T16:04:39.084Z,27.73
2019-05-02T16:07:08.652Z,27.13
2019-05-02T16:09:38.051Z,27.93
2019-05-02T16:12:07.475Z,26.00
2019-05-02T16:14:36.731Z,27.13
2019-05-02T16:17:06.156Z,24.10
2019-05-02T16:19:42.563Z,23.40
2019-05-02T16:22:15.450Z,23.47
2019-05-02T16:24:48.787Z,22.73
2019-05-02T16:27:16.486Z,24.30
2019-05-02T16:29:46.762Z,20.33
2019-05-02T16:32:24.282Z,26.13
2019-05-02T16:35:07.247Z,24.13
2019-05-02T16:37:33.139Z,27.57
2019-05-02T16:40:02.789Z,24.43
2019-05-02T16:42:32.793Z,21.80
2019-05-02T16:45:02.751Z,25.83
2019-05-02T16:47:32.575Z,22.13
2019-05-02T16:50:02.553Z,22.90
2019-05-02T16:52:32.742Z,23.57
2019-05-02T16:55:03.836Z,20.30
2019-05-02T16:57:35.559Z,23.23
2019-05-02T17:00:06.590Z,22.93
2019-05-02T17:02:37.890Z,27.10
2019-05-02T17:05:09.343Z,25.70
2019-05-02T17:08:03.044Z,25.13
2019-05-02T17:10:35.826Z,28.00
2019-05-02T17:13:05.531Z,30.87
2019-05-02T17:15:36.265Z,23.47
2019-05-02T17:18:12.852Z,20.30
2019-05-02T17:20:37.724Z,19.60
2019-05-02T17:23:07.840Z,19.20
2019-05-02T17:25:37.219Z,16.47
2019-05-02T17:28:10.268Z,22.00
2019-05-02T17:30:39.049Z,16.43
2019-05-02T17:33:14.256Z,19.97
2019-05-02T17:35:41.660Z,17.17
2019-05-02T17:38:12.069Z,17.33
2019-05-02T17:40:42.232Z,17.93
2019-05-02T17:43:11.569Z,17.50
2019-05-02T17:45:40.926Z,16.13
2019-05-02T17:48:16.430Z,14.37
2019-05-02T17:50:59.290Z,14.87
2019-05-02T17:53:28.446Z,16.37
2019-05-02T17:55:57.632Z,16.20
2019-05-02T17:58:26.905Z,18.87
2019-05-02T18:01:00.136Z,17.90
2019-05-02T18:03:31.126Z,16.53
2019-05-02T18:05:59.687Z,20.10
2019-05-02T18:08:29.006Z,19.27
2019-05-02T18:11:00.184Z,20.47
2019-05-02T18:13:33.684Z,18.83
2019-05-02T18:16:00.255Z,18.57
2019-05-02T18:18:31.947Z,18.70
2019-05-02T18:21:02.066Z,23.90
2019-05-02T18:23:32.285Z,21.07
2019-05-02T18:26:05.024Z,17.57
2019-05-02T18:28:32.713Z,17.40
2019-05-02T18:31:05.617Z,19.93
2019-05-02T18:33:35.959Z,15.43
2019-05-02T18:36:03.963Z,17.00
2019-05-02T18:38:33.305Z,20.80
2019-05-02T18:41:05.840Z,22.30
2019-05-02T18:43:36.089Z,17.80
2019-05-02T18:46:07.564Z,21.63
2019-05-02T18:48:36.542Z,19.40
2019-05-02T18:51:06.753Z,24.07
2019-05-02T18:53:36.079Z,20.00
2019-05-02T18:56:06.425Z,16.73
2019-05-02T18:58:36.239Z,16.93
2019-05-02T19:01:08.403Z,20.20
2019-05-02T19:03:37.951Z,16.97
2019-05-02T19:06:07.211Z,16.07
2019-05-02T19:08:47.589Z,13.10
2019-05-02T19:11:12.373Z,11.20
2019-05-02T19:13:42.904Z,8.03
2019-05-02T19:16:12.916Z,7.90
2019-05-02T19:18:42.691Z,10.00
2019-05-02T19:21:12.568Z,9.27
2019-05-02T19:23:42.595Z,10.47
2019-05-02T19:26:16.072Z,9.30
2019-05-02T19:29:14.151Z,8.17
2019-05-02T19:31:49.630Z,8.43
2019-05-02T19:34:22.916Z,10.23
2019-05-02T19:36:52.662Z,8.77
2019-05-02T19:39:23.976Z,9.63
2019-05-02T19:41:52.976Z,10.07
2019-05-02T19:44:29.138Z,14.27
2019-05-02T19:46:53.331Z,7.70
2019-05-02T19:49:25.349Z,8.20
2019-05-02T19:51:56.508Z,8.13
2019-05-02T19:54:24.724Z,8.87
2019-05-02T19:56:54.642Z,9.13
2019-05-02T19:59:26.294Z,9.17
2019-05-02T20:01:57.010Z,8.33
2019-05-02T20:04:27.982Z,9.73
2019-05-02T20:06:58.039Z,7.60
2019-05-02T20:09:27.805Z,8.37
2019-05-02T20:11:57.591Z,8.07
2019-05-02T20:14:27.967Z,8.17
2019-05-02T20:17:02.068Z,9.17
2019-05-02T20:19:34.827Z,8.80
2019-05-02T20:22:17.587Z,10.33
2019-05-02T20:24:58.582Z,8.73
2019-05-02T20:27:28.173Z,8.93
2019-05-02T20:29:57.587Z,8.73
2019-05-02T20:32:29.108Z,8.93
2019-05-02T20:34:58.947Z,10.60
2019-05-02T20:37:28.827Z,9.70
2019-05-02T20:39:58.751Z,10.30
2019-05-02T20:42:28.531Z,10.07
2019-05-02T20:44:58.290Z,12.57
2019-05-02T20:47:28.469Z,10.80
2019-05-02T20:49:58.183Z,11.80
2019-05-02T20:52:28.016Z,10.43
2019-05-02T20:54:57.826Z,10.80
2019-05-02T20:57:27.090Z,10.90
2019-05-02T20:59:56.278Z,11.53
2019-05-02T21:02:25.538Z,11.93
2019-05-02T21:04:54.819Z,10.53
2019-05-02T21:07:33.075Z,10.80
2019-05-02T21:10:10.044Z,11.10
2019-05-02T21:12:39.293Z,11.10
2019-05-02T21:15:08.872Z,11.90
2019-05-02T21:17:38.250Z,10.37
2019-05-02T21:20:07.694Z,10.13
2019-05-02T21:22:37.127Z,11.60
2019-05-02T21:25:07.143Z,9.63
2019-05-02T21:27:36.492Z,9.67
2019-05-02T21:30:07.490Z,9.47
2019-05-02T21:32:36.766Z,8.33
2019-05-02T21:35:06.983Z,8.60
2019-05-02T21:37:36.297Z,7.33
2019-05-02T21:40:06.776Z,8.60
2019-05-02T21:42:36.027Z,9.80
2019-05-02T21:45:05.939Z,7.33
2019-05-02T21:47:35.219Z,6.63
2019-05-02T21:50:12.763Z,7.30
2019-05-02T21:53:19.119Z,8.57
2019-05-02T21:56:07.722Z,8.60
2019-05-02T21:58:36.981Z,7.83
2019-05-02T22:01:09.996Z,7.47
2019-05-02T22:03:39.951Z,9.20
2019-05-02T22:06:09.255Z,8.13
2019-05-02T22:08:38.538Z,11.83
2019-05-02T22:11:07.923Z,6.87
2019-05-02T22:13:37.183Z,8.13
2019-05-02T22:16:06.419Z,9.83
2019-05-02T22:18:35.682Z,6.90
2019-05-02T22:21:04.935Z,7.97
2019-05-02T22:23:34.110Z,9.40
2019-05-02T22:26:03.344Z,10.23
2019-05-02T22:28:32.813Z,9.40
2019-05-02T22:31:03.231Z,8.93
2019-05-02T22:33:32.862Z,9.83
2019-05-02T22:36:02.354Z,9.73
2019-05-02T22:38:52.720Z,9.87
2019-05-02T22:41:22.178Z,12.77
2019-05-02T22:43:51.622Z,10.30
2019-05-02T22:46:43.396Z,9.70
2019-05-02T22:49:14.742Z,9.83
2019-05-02T22:51:44.506Z,12.33
2019-05-02T22:54:26.322Z,11.10
2019-05-02T22:56:44.778Z,12.90
2019-05-02T22:59:13.971Z,10.90
2019-05-02T23:01:43.235Z,11.70
2019-05-02T23:04:12.865Z,14.40
2019-05-02T23:06:44.235Z,14.00
2019-05-02T23:09:14.238Z,12.53
2019-05-02T23:11:43.386Z,9.63
2019-05-02T23:14:12.637Z,11.27
2019-05-02T23:16:42.741Z,12.20
2019-05-02T23:19:12.535Z,13.83
2019-05-02T23:21:42.386Z,13.87
2019-05-02T23:24:23.730Z,16.17
2019-05-02T23:27:22.269Z,17.93
2019-05-02T23:29:52.040Z,17.03
2019-05-02T23:32:23.667Z,16.47
2019-05-02T23:34:52.404Z,17.73
2019-05-02T23:37:21.643Z,20.47
2019-05-02T23:39:52.300Z,21.60
2019-05-02T23:42:21.931Z,21.13
2019-05-02T23:44:51.942Z,21.90
2019-05-02T23:47:22.429Z,22.20
2019-05-02T23:49:52.147Z,24.37
2019-05-02T23:52:22.440Z,26.07
2019-05-02T23:54:52.592Z,23.33
2019-05-02T23:57:22.971Z,26.90
2019-05-02T23:59:52.438Z,22.80
